sensor_id;sensor_type;location;lat;lon;timestamp;P1;durP1;ratioP1;P2;durP2;ratioP2
23838;SDS011;12100;44.384;20.272;2022-07-03T00:01:18;13.23;;;6.45;;
23838;SDS011;12100;44.384;20.272;2022-07-03T00:03:44;9.82;;;5.95;;
23838;SDS011;12100;44.384;20.272;2022-07-03T00:06:10;10.23;;;6.15;;
23838;SDS011;12100;44.384;20.272;2022-07-03T00:08:36;8.38;;;6.55;;
23838;SDS011;12100;44.384;20.272;2022-07-03T00:11:02;8.35;;;6.50;;
23838;SDS011;12100;44.384;20.272;2022-07-03T00:13:28;8.90;;;6.30;;
23838;SDS011;12100;44.384;20.272;2022-07-03T00:15:54;8.00;;;6.53;;
23838;SDS011;12100;44.384;20.272;2022-07-03T00:18:20;6.93;;;6.13;;
23838;SDS011;12100;44.384;20.272;2022-07-03T00:20:47;8.40;;;6.55;;
23838;SDS011;12100;44.384;20.272;2022-07-03T00:23:17;8.20;;;6.22;;
23838;SDS011;12100;44.384;20.272;2022-07-03T00:25:46;8.32;;;6.38;;
23838;SDS011;12100;44.384;20.272;2022-07-03T00:28:14;8.30;;;6.65;;
23838;SDS011;12100;44.384;20.272;2022-07-03T00:30:42;8.95;;;6.80;;
23838;SDS011;12100;44.384;20.272;2022-07-03T00:33:10;9.15;;;6.43;;
23838;SDS011;12100;44.384;20.272;2022-07-03T00:35:37;11.23;;;7.63;;
23838;SDS011;12100;44.384;20.272;2022-07-03T00:38:07;7.93;;;6.85;;
23838;SDS011;12100;44.384;20.272;2022-07-03T00:40:34;8.05;;;6.93;;
23838;SDS011;12100;44.384;20.272;2022-07-03T00:43:00;8.27;;;6.80;;
23838;SDS011;12100;44.384;20.272;2022-07-03T00:45:28;9.27;;;7.32;;
23838;SDS011;12100;44.384;20.272;2022-07-03T00:47:59;8.38;;;7.55;;
23838;SDS011;12100;44.384;20.272;2022-07-03T00:50:33;9.57;;;7.63;;
23838;SDS011;12100;44.384;20.272;2022-07-03T00:53:01;8.65;;;7.65;;
23838;SDS011;12100;44.384;20.272;2022-07-03T00:55:28;8.07;;;7.30;;
23838;SDS011;12100;44.384;20.272;2022-07-03T00:57:54;8.70;;;7.30;;
23838;SDS011;12100;44.384;20.272;2022-07-03T01:00:21;7.40;;;6.45;;
23838;SDS011;12100;44.384;20.272;2022-07-03T01:05:27;11.90;;;7.03;;
23838;SDS011;12100;44.384;20.272;2022-07-03T01:19:29;9.98;;;6.78;;
23838;SDS011;12100;44.384;20.272;2022-07-03T01:24:48;7.32;;;5.63;;
23838;SDS011;12100;44.384;20.272;2022-07-03T01:27:38;8.23;;;6.53;;
23838;SDS011;12100;44.384;20.272;2022-07-03T01:30:33;11.90;;;7.18;;
23838;SDS011;12100;44.384;20.272;2022-07-03T01:33:03;8.40;;;7.20;;
23838;SDS011;12100;44.384;20.272;2022-07-03T01:35:33;8.32;;;6.97;;
23838;SDS011;12100;44.384;20.272;2022-07-03T01:38:02;7.43;;;6.60;;
23838;SDS011;12100;44.384;20.272;2022-07-03T01:43:01;9.07;;;7.25;;
23838;SDS011;12100;44.384;20.272;2022-07-03T01:45:31;9.05;;;6.78;;
23838;SDS011;12100;44.384;20.272;2022-07-03T01:47:59;7.63;;;6.95;;
23838;SDS011;12100;44.384;20.272;2022-07-03T01:50:27;10.68;;;7.68;;
23838;SDS011;12100;44.384;20.272;2022-07-03T01:52:54;9.27;;;6.63;;
23838;SDS011;12100;44.384;20.272;2022-07-03T01:55:26;7.25;;;6.43;;
23838;SDS011;12100;44.384;20.272;2022-07-03T01:57:56;8.10;;;6.72;;
23838;SDS011;12100;44.384;20.272;2022-07-03T02:00:22;9.10;;;6.85;;
23838;SDS011;12100;44.384;20.272;2022-07-03T02:03:02;8.27;;;6.05;;
23838;SDS011;12100;44.384;20.272;2022-07-03T02:05:30;11.50;;;6.97;;
23838;SDS011;12100;44.384;20.272;2022-07-03T02:10:42;8.65;;;6.45;;
23838;SDS011;12100;44.384;20.272;2022-07-03T02:13:17;7.97;;;6.97;;
23838;SDS011;12100;44.384;20.272;2022-07-03T02:15:49;7.53;;;6.82;;
23838;SDS011;12100;44.384;20.272;2022-07-03T02:20:46;10.77;;;7.85;;
23838;SDS011;12100;44.384;20.272;2022-07-03T02:23:21;10.10;;;8.63;;
23838;SDS011;12100;44.384;20.272;2022-07-03T02:25:52;9.50;;;8.00;;
23838;SDS011;12100;44.384;20.272;2022-07-03T02:29:05;8.02;;;7.15;;
23838;SDS011;12100;44.384;20.272;2022-07-03T02:31:11;11.85;;;7.28;;
23838;SDS011;12100;44.384;20.272;2022-07-03T02:33:40;10.40;;;7.50;;
23838;SDS011;12100;44.384;20.272;2022-07-03T02:36:08;9.82;;;6.93;;
23838;SDS011;12100;44.384;20.272;2022-07-03T02:38:36;8.13;;;7.32;;
23838;SDS011;12100;44.384;20.272;2022-07-03T02:41:21;10.80;;;7.60;;
23838;SDS011;12100;44.384;20.272;2022-07-03T02:46:40;9.50;;;7.72;;
23838;SDS011;12100;44.384;20.272;2022-07-03T02:52:00;8.90;;;8.05;;
23838;SDS011;12100;44.384;20.272;2022-07-03T02:54:27;9.13;;;7.82;;
23838;SDS011;12100;44.384;20.272;2022-07-03T02:57:07;8.32;;;7.53;;
23838;SDS011;12100;44.384;20.272;2022-07-03T03:04:57;8.55;;;7.47;;
23838;SDS011;12100;44.384;20.272;2022-07-03T03:07:29;11.13;;;8.32;;
23838;SDS011;12100;44.384;20.272;2022-07-03T03:10:00;11.23;;;7.82;;
23838;SDS011;12100;44.384;20.272;2022-07-03T03:12:29;9.95;;;8.77;;
23838;SDS011;12100;44.384;20.272;2022-07-03T03:15:00;8.68;;;7.82;;
23838;SDS011;12100;44.384;20.272;2022-07-03T03:17:29;9.93;;;8.35;;
23838;SDS011;12100;44.384;20.272;2022-07-03T03:20:06;9.10;;;8.05;;
23838;SDS011;12100;44.384;20.272;2022-07-03T03:25:25;10.15;;;7.68;;
23838;SDS011;12100;44.384;20.272;2022-07-03T03:27:51;9.15;;;8.15;;
23838;SDS011;12100;44.384;20.272;2022-07-03T03:30:17;9.80;;;8.73;;
23838;SDS011;12100;44.384;20.272;2022-07-03T03:32:43;10.88;;;7.38;;
23838;SDS011;12100;44.384;20.272;2022-07-03T03:35:10;11.82;;;7.32;;
23838;SDS011;12100;44.384;20.272;2022-07-03T03:37:36;11.88;;;7.47;;
23838;SDS011;12100;44.384;20.272;2022-07-03T03:40:03;9.55;;;7.38;;
23838;SDS011;12100;44.384;20.272;2022-07-03T03:42:30;7.90;;;7.07;;
23838;SDS011;12100;44.384;20.272;2022-07-03T03:44:55;8.38;;;7.43;;
23838;SDS011;12100;44.384;20.272;2022-07-03T03:47:21;14.05;;;8.23;;
23838;SDS011;12100;44.384;20.272;2022-07-03T03:49:47;12.57;;;8.13;;
23838;SDS011;12100;44.384;20.272;2022-07-03T03:52:13;7.97;;;7.28;;
23838;SDS011;12100;44.384;20.272;2022-07-03T03:54:39;8.13;;;6.90;;
23838;SDS011;12100;44.384;20.272;2022-07-03T03:57:23;11.07;;;7.25;;
23838;SDS011;12100;44.384;20.272;2022-07-03T03:59:50;9.10;;;6.22;;
23838;SDS011;12100;44.384;20.272;2022-07-03T04:02:16;7.43;;;6.72;;
23838;SDS011;12100;44.384;20.272;2022-07-03T04:04:43;8.15;;;7.35;;
23838;SDS011;12100;44.384;20.272;2022-07-03T04:07:09;13.05;;;7.50;;
23838;SDS011;12100;44.384;20.272;2022-07-03T04:09:35;8.98;;;7.55;;
23838;SDS011;12100;44.384;20.272;2022-07-03T04:12:01;10.73;;;6.93;;
23838;SDS011;12100;44.384;20.272;2022-07-03T04:14:27;7.15;;;6.45;;
23838;SDS011;12100;44.384;20.272;2022-07-03T04:16:53;6.40;;;5.80;;
23838;SDS011;12100;44.384;20.272;2022-07-03T04:19:19;9.50;;;5.93;;
23838;SDS011;12100;44.384;20.272;2022-07-03T04:21:44;7.30;;;5.68;;
23838;SDS011;12100;44.384;20.272;2022-07-03T04:24:10;7.65;;;5.80;;
23838;SDS011;12100;44.384;20.272;2022-07-03T04:26:36;7.15;;;5.10;;
23838;SDS011;12100;44.384;20.272;2022-07-03T04:29:02;8.88;;;6.38;;
23838;SDS011;12100;44.384;20.272;2022-07-03T04:31:27;6.07;;;5.07;;
23838;SDS011;12100;44.384;20.272;2022-07-03T04:33:53;9.48;;;5.40;;
23838;SDS011;12100;44.384;20.272;2022-07-03T04:36:19;6.85;;;5.22;;
23838;SDS011;12100;44.384;20.272;2022-07-03T04:38:45;8.13;;;4.63;;
23838;SDS011;12100;44.384;20.272;2022-07-03T04:41:11;9.48;;;5.10;;
23838;SDS011;12100;44.384;20.272;2022-07-03T04:43:36;11.00;;;5.28;;
23838;SDS011;12100;44.384;20.272;2022-07-03T04:46:02;9.85;;;4.65;;
23838;SDS011;12100;44.384;20.272;2022-07-03T04:48:28;7.90;;;5.13;;
23838;SDS011;12100;44.384;20.272;2022-07-03T04:50:54;5.65;;;5.10;;
23838;SDS011;12100;44.384;20.272;2022-07-03T04:53:20;14.73;;;5.35;;
23838;SDS011;12100;44.384;20.272;2022-07-03T04:55:46;6.30;;;4.50;;
23838;SDS011;12100;44.384;20.272;2022-07-03T04:58:12;7.20;;;4.93;;
23838;SDS011;12100;44.384;20.272;2022-07-03T05:00:38;9.57;;;5.05;;
23838;SDS011;12100;44.384;20.272;2022-07-03T05:03:06;8.75;;;4.63;;
23838;SDS011;12100;44.384;20.272;2022-07-03T05:05:32;5.50;;;3.95;;
23838;SDS011;12100;44.384;20.272;2022-07-03T05:07:58;6.80;;;4.63;;
23838;SDS011;12100;44.384;20.272;2022-07-03T05:10:24;7.00;;;4.95;;
23838;SDS011;12100;44.384;20.272;2022-07-03T05:12:49;10.40;;;5.45;;
23838;SDS011;12100;44.384;20.272;2022-07-03T05:15:15;6.75;;;4.68;;
23838;SDS011;12100;44.384;20.272;2022-07-03T05:17:41;6.07;;;4.30;;
23838;SDS011;12100;44.384;20.272;2022-07-03T05:20:07;14.88;;;9.65;;
23838;SDS011;12100;44.384;20.272;2022-07-03T05:22:52;17.83;;;12.95;;
23838;SDS011;12100;44.384;20.272;2022-07-03T05:25:18;9.55;;;4.93;;
23838;SDS011;12100;44.384;20.272;2022-07-03T05:27:45;7.80;;;4.53;;
23838;SDS011;12100;44.384;20.272;2022-07-03T05:30:11;8.77;;;4.75;;
23838;SDS011;12100;44.384;20.272;2022-07-03T05:32:37;8.00;;;5.00;;
23838;SDS011;12100;44.384;20.272;2022-07-03T05:35:04;10.45;;;5.32;;
23838;SDS011;12100;44.384;20.272;2022-07-03T05:37:30;7.13;;;4.65;;
23838;SDS011;12100;44.384;20.272;2022-07-03T05:39:56;9.27;;;4.60;;
23838;SDS011;12100;44.384;20.272;2022-07-03T05:42:22;6.47;;;4.60;;
23838;SDS011;12100;44.384;20.272;2022-07-03T05:44:48;9.43;;;5.43;;
23838;SDS011;12100;44.384;20.272;2022-07-03T05:47:14;7.10;;;4.60;;
23838;SDS011;12100;44.384;20.272;2022-07-03T05:49:40;7.13;;;4.95;;
23838;SDS011;12100;44.384;20.272;2022-07-03T05:52:06;8.40;;;4.40;;
23838;SDS011;12100;44.384;20.272;2022-07-03T05:54:32;7.22;;;4.40;;
23838;SDS011;12100;44.384;20.272;2022-07-03T05:56:58;7.20;;;4.93;;
23838;SDS011;12100;44.384;20.272;2022-07-03T05:59:26;5.90;;;4.72;;
23838;SDS011;12100;44.384;20.272;2022-07-03T06:01:52;8.65;;;4.95;;
23838;SDS011;12100;44.384;20.272;2022-07-03T06:04:18;6.63;;;5.22;;
23838;SDS011;12100;44.384;20.272;2022-07-03T06:06:44;5.13;;;4.13;;
23838;SDS011;12100;44.384;20.272;2022-07-03T06:09:10;7.90;;;5.50;;
23838;SDS011;12100;44.384;20.272;2022-07-03T06:11:36;7.25;;;5.07;;
23838;SDS011;12100;44.384;20.272;2022-07-03T06:14:01;7.65;;;4.70;;
23838;SDS011;12100;44.384;20.272;2022-07-03T06:16:27;7.18;;;4.45;;
23838;SDS011;12100;44.384;20.272;2022-07-03T06:18:53;6.00;;;4.80;;
23838;SDS011;12100;44.384;20.272;2022-07-03T06:21:19;6.78;;;4.43;;
23838;SDS011;12100;44.384;20.272;2022-07-03T06:23:44;8.52;;;3.83;;
23838;SDS011;12100;44.384;20.272;2022-07-03T06:26:11;8.07;;;4.00;;
23838;SDS011;12100;44.384;20.272;2022-07-03T06:28:36;5.75;;;4.05;;
23838;SDS011;12100;44.384;20.272;2022-07-03T06:31:02;6.00;;;4.63;;
23838;SDS011;12100;44.384;20.272;2022-07-03T06:33:28;5.95;;;3.88;;
23838;SDS011;12100;44.384;20.272;2022-07-03T06:35:54;6.75;;;3.92;;
23838;SDS011;12100;44.384;20.272;2022-07-03T06:38:19;7.63;;;4.53;;
23838;SDS011;12100;44.384;20.272;2022-07-03T06:40:45;6.97;;;4.15;;
23838;SDS011;12100;44.384;20.272;2022-07-03T06:43:11;7.15;;;4.20;;
23838;SDS011;12100;44.384;20.272;2022-07-03T06:45:37;7.43;;;3.67;;
23838;SDS011;12100;44.384;20.272;2022-07-03T06:48:02;11.35;;;4.10;;
23838;SDS011;12100;44.384;20.272;2022-07-03T06:50:29;6.93;;;3.50;;
23838;SDS011;12100;44.384;20.272;2022-07-03T06:52:54;7.28;;;3.72;;
23838;SDS011;12100;44.384;20.272;2022-07-03T06:55:20;6.47;;;3.60;;
23838;SDS011;12100;44.384;20.272;2022-07-03T06:57:46;7.35;;;3.65;;
23838;SDS011;12100;44.384;20.272;2022-07-03T07:00:12;5.78;;;3.45;;
23838;SDS011;12100;44.384;20.272;2022-07-03T07:02:38;7.82;;;4.25;;
23838;SDS011;12100;44.384;20.272;2022-07-03T07:05:04;6.57;;;4.25;;
23838;SDS011;12100;44.384;20.272;2022-07-03T07:07:30;9.35;;;4.28;;
23838;SDS011;12100;44.384;20.272;2022-07-03T07:09:56;5.43;;;3.58;;
23838;SDS011;12100;44.384;20.272;2022-07-03T07:12:22;8.20;;;3.72;;
23838;SDS011;12100;44.384;20.272;2022-07-03T07:14:48;5.28;;;3.65;;
23838;SDS011;12100;44.384;20.272;2022-07-03T07:17:13;8.43;;;3.63;;
23838;SDS011;12100;44.384;20.272;2022-07-03T07:19:39;8.70;;;4.68;;
23838;SDS011;12100;44.384;20.272;2022-07-03T07:22:05;6.60;;;4.63;;
23838;SDS011;12100;44.384;20.272;2022-07-03T07:24:31;8.35;;;4.20;;
23838;SDS011;12100;44.384;20.272;2022-07-03T07:26:57;7.03;;;4.30;;
23838;SDS011;12100;44.384;20.272;2022-07-03T07:29:23;6.97;;;4.28;;
23838;SDS011;12100;44.384;20.272;2022-07-03T07:31:49;7.85;;;4.80;;
23838;SDS011;12100;44.384;20.272;2022-07-03T07:34:15;8.75;;;4.45;;
23838;SDS011;12100;44.384;20.272;2022-07-03T07:36:41;6.50;;;4.10;;
23838;SDS011;12100;44.384;20.272;2022-07-03T07:39:08;4.35;;;3.65;;
23838;SDS011;12100;44.384;20.272;2022-07-03T07:41:35;6.97;;;4.07;;
23838;SDS011;12100;44.384;20.272;2022-07-03T07:44:01;5.28;;;3.60;;
23838;SDS011;12100;44.384;20.272;2022-07-03T07:46:28;5.72;;;3.92;;
23838;SDS011;12100;44.384;20.272;2022-07-03T07:48:54;7.00;;;3.75;;
23838;SDS011;12100;44.384;20.272;2022-07-03T07:51:20;5.93;;;3.75;;
23838;SDS011;12100;44.384;20.272;2022-07-03T07:53:46;8.13;;;3.65;;
23838;SDS011;12100;44.384;20.272;2022-07-03T07:56:14;4.05;;;3.65;;
23838;SDS011;12100;44.384;20.272;2022-07-03T07:58:40;6.90;;;3.90;;
23838;SDS011;12100;44.384;20.272;2022-07-03T08:01:06;4.90;;;3.92;;
23838;SDS011;12100;44.384;20.272;2022-07-03T08:03:51;4.70;;;4.13;;
23838;SDS011;12100;44.384;20.272;2022-07-03T08:06:36;4.78;;;3.70;;
23838;SDS011;12100;44.384;20.272;2022-07-03T08:09:02;8.68;;;4.10;;
23838;SDS011;12100;44.384;20.272;2022-07-03T08:11:28;9.38;;;3.67;;
23838;SDS011;12100;44.384;20.272;2022-07-03T08:13:54;6.43;;;4.55;;
23838;SDS011;12100;44.384;20.272;2022-07-03T08:16:20;6.35;;;3.92;;
23838;SDS011;12100;44.384;20.272;2022-07-03T08:18:46;6.38;;;3.97;;
23838;SDS011;12100;44.384;20.272;2022-07-03T08:21:12;5.82;;;4.00;;
23838;SDS011;12100;44.384;20.272;2022-07-03T08:23:38;5.60;;;4.07;;
23838;SDS011;12100;44.384;20.272;2022-07-03T08:26:04;4.82;;;3.88;;
23838;SDS011;12100;44.384;20.272;2022-07-03T08:28:30;5.45;;;4.43;;
23838;SDS011;12100;44.384;20.272;2022-07-03T08:30:56;9.23;;;4.53;;
23838;SDS011;12100;44.384;20.272;2022-07-03T08:33:22;4.70;;;4.15;;
23838;SDS011;12100;44.384;20.272;2022-07-03T08:35:48;6.50;;;3.78;;
23838;SDS011;12100;44.384;20.272;2022-07-03T08:38:14;4.47;;;3.60;;
23838;SDS011;12100;44.384;20.272;2022-07-03T08:40:39;6.07;;;4.10;;
23838;SDS011;12100;44.384;20.272;2022-07-03T08:43:08;7.38;;;4.18;;
23838;SDS011;12100;44.384;20.272;2022-07-03T08:45:34;5.13;;;4.38;;
23838;SDS011;12100;44.384;20.272;2022-07-03T08:48:04;7.13;;;4.13;;
23838;SDS011;12100;44.384;20.272;2022-07-03T08:50:32;6.50;;;4.03;;
23838;SDS011;12100;44.384;20.272;2022-07-03T08:52:58;5.68;;;4.40;;
23838;SDS011;12100;44.384;20.272;2022-07-03T08:55:25;7.47;;;4.22;;
23838;SDS011;12100;44.384;20.272;2022-07-03T08:57:51;8.10;;;4.65;;
23838;SDS011;12100;44.384;20.272;2022-07-03T09:00:21;8.98;;;4.55;;
23838;SDS011;12100;44.384;20.272;2022-07-03T09:02:48;9.98;;;4.40;;
23838;SDS011;12100;44.384;20.272;2022-07-03T09:05:14;7.97;;;4.30;;
23838;SDS011;12100;44.384;20.272;2022-07-03T09:07:41;6.20;;;4.80;;
23838;SDS011;12100;44.384;20.272;2022-07-03T09:10:12;7.18;;;4.38;;
23838;SDS011;12100;44.384;20.272;2022-07-03T09:12:45;5.38;;;4.88;;
23838;SDS011;12100;44.384;20.272;2022-07-03T09:15:12;8.55;;;4.30;;
23838;SDS011;12100;44.384;20.272;2022-07-03T09:17:38;8.20;;;4.85;;
23838;SDS011;12100;44.384;20.272;2022-07-03T09:20:05;7.63;;;4.63;;
23838;SDS011;12100;44.384;20.272;2022-07-03T09:22:33;8.57;;;4.05;;
23838;SDS011;12100;44.384;20.272;2022-07-03T09:25:04;7.53;;;4.32;;
23838;SDS011;12100;44.384;20.272;2022-07-03T09:30:00;7.28;;;5.10;;
23838;SDS011;12100;44.384;20.272;2022-07-03T09:32:31;8.52;;;5.13;;
23838;SDS011;12100;44.384;20.272;2022-07-03T09:35:09;8.70;;;4.43;;
23838;SDS011;12100;44.384;20.272;2022-07-03T09:37:51;4.85;;;4.43;;
23838;SDS011;12100;44.384;20.272;2022-07-03T09:40:21;6.85;;;4.90;;
23838;SDS011;12100;44.384;20.272;2022-07-03T09:43:01;7.35;;;4.65;;
23838;SDS011;12100;44.384;20.272;2022-07-03T09:56:37;7.25;;;4.47;;
23838;SDS011;12100;44.384;20.272;2022-07-03T09:59:13;9.68;;;5.18;;
23838;SDS011;12100;44.384;20.272;2022-07-03T10:01:41;7.90;;;4.70;;
23838;SDS011;12100;44.384;20.272;2022-07-03T10:04:12;7.47;;;5.13;;
23838;SDS011;12100;44.384;20.272;2022-07-03T10:09:36;6.22;;;5.60;;
23838;SDS011;12100;44.384;20.272;2022-07-03T10:12:02;12.82;;;9.07;;
23838;SDS011;12100;44.384;20.272;2022-07-03T10:14:30;10.15;;;5.88;;
23838;SDS011;12100;44.384;20.272;2022-07-03T10:16:57;9.85;;;5.00;;
23838;SDS011;12100;44.384;20.272;2022-07-03T10:19:26;5.30;;;4.80;;
23838;SDS011;12100;44.384;20.272;2022-07-03T10:21:56;9.85;;;5.15;;
23838;SDS011;12100;44.384;20.272;2022-07-03T10:24:26;6.60;;;5.63;;
23838;SDS011;12100;44.384;20.272;2022-07-03T10:26:54;6.60;;;5.75;;
23838;SDS011;12100;44.384;20.272;2022-07-03T10:29:23;7.03;;;5.22;;
23838;SDS011;12100;44.384;20.272;2022-07-03T10:31:53;9.88;;;6.28;;
23838;SDS011;12100;44.384;20.272;2022-07-03T10:34:19;19.73;;;13.65;;
23838;SDS011;12100;44.384;20.272;2022-07-03T10:36:47;7.20;;;5.93;;
23838;SDS011;12100;44.384;20.272;2022-07-03T10:41:53;8.48;;;5.10;;
23838;SDS011;12100;44.384;20.272;2022-07-03T10:44:55;7.47;;;5.35;;
23838;SDS011;12100;44.384;20.272;2022-07-03T10:47:36;6.45;;;5.32;;
23838;SDS011;12100;44.384;20.272;2022-07-03T10:50:07;6.03;;;5.43;;
23838;SDS011;12100;44.384;20.272;2022-07-03T10:52:35;9.30;;;5.68;;
23838;SDS011;12100;44.384;20.272;2022-07-03T10:55:02;6.38;;;5.72;;
23838;SDS011;12100;44.384;20.272;2022-07-03T10:57:31;13.32;;;6.60;;
23838;SDS011;12100;44.384;20.272;2022-07-03T11:00:01;7.90;;;5.43;;
23838;SDS011;12100;44.384;20.272;2022-07-03T11:02:37;10.43;;;6.20;;
23838;SDS011;12100;44.384;20.272;2022-07-03T11:05:04;8.95;;;5.80;;
23838;SDS011;12100;44.384;20.272;2022-07-03T11:13:04;7.63;;;6.07;;
23838;SDS011;12100;44.384;20.272;2022-07-03T11:15:31;11.63;;;6.03;;
23838;SDS011;12100;44.384;20.272;2022-07-03T11:20:37;6.88;;;6.07;;
23838;SDS011;12100;44.384;20.272;2022-07-03T11:26:18;8.35;;;6.15;;
23838;SDS011;12100;44.384;20.272;2022-07-03T11:28:48;7.75;;;6.50;;
23838;SDS011;12100;44.384;20.272;2022-07-03T11:31:18;8.02;;;6.35;;
23838;SDS011;12100;44.384;20.272;2022-07-03T11:41:26;7.15;;;6.45;;
23838;SDS011;12100;44.384;20.272;2022-07-03T11:43:53;9.70;;;6.55;;
23838;SDS011;12100;44.384;20.272;2022-07-03T11:46:21;9.02;;;6.18;;
23838;SDS011;12100;44.384;20.272;2022-07-03T11:48:48;7.97;;;6.45;;
23838;SDS011;12100;44.384;20.272;2022-07-03T11:51:15;9.00;;;6.32;;
23838;SDS011;12100;44.384;20.272;2022-07-03T11:53:41;7.90;;;6.78;;
23838;SDS011;12100;44.384;20.272;2022-07-03T11:56:11;7.95;;;6.82;;
23838;SDS011;12100;44.384;20.272;2022-07-03T11:58:44;8.45;;;6.95;;
23838;SDS011;12100;44.384;20.272;2022-07-03T12:03:47;9.02;;;6.75;;
23838;SDS011;12100;44.384;20.272;2022-07-03T12:06:13;9.23;;;7.28;;
23838;SDS011;12100;44.384;20.272;2022-07-03T12:08:40;10.55;;;6.90;;
23838;SDS011;12100;44.384;20.272;2022-07-03T12:11:10;7.75;;;6.80;;
23838;SDS011;12100;44.384;20.272;2022-07-03T12:13:38;10.30;;;7.47;;
23838;SDS011;12100;44.384;20.272;2022-07-03T12:16:05;12.95;;;7.80;;
23838;SDS011;12100;44.384;20.272;2022-07-03T12:21:16;11.73;;;9.82;;
23838;SDS011;12100;44.384;20.272;2022-07-03T12:23:50;10.98;;;8.75;;
23838;SDS011;12100;44.384;20.272;2022-07-03T12:26:28;11.10;;;8.98;;
23838;SDS011;12100;44.384;20.272;2022-07-03T12:28:59;9.13;;;8.13;;
23838;SDS011;12100;44.384;20.272;2022-07-03T12:31:27;9.38;;;8.25;;
23838;SDS011;12100;44.384;20.272;2022-07-03T12:33:57;12.27;;;10.75;;
23838;SDS011;12100;44.384;20.272;2022-07-03T12:36:23;10.38;;;8.48;;
23838;SDS011;12100;44.384;20.272;2022-07-03T12:38:53;8.80;;;7.68;;
23838;SDS011;12100;44.384;20.272;2022-07-03T12:41:21;11.52;;;8.32;;
23838;SDS011;12100;44.384;20.272;2022-07-03T12:43:48;8.15;;;7.38;;
23838;SDS011;12100;44.384;20.272;2022-07-03T12:46:22;8.68;;;7.53;;
23838;SDS011;12100;44.384;20.272;2022-07-03T12:48:56;7.30;;;6.60;;
23838;SDS011;12100;44.384;20.272;2022-07-03T12:54:21;9.95;;;7.75;;
23838;SDS011;12100;44.384;20.272;2022-07-03T12:57:10;7.53;;;6.40;;
23838;SDS011;12100;44.384;20.272;2022-07-03T13:00:07;7.63;;;6.70;;
23838;SDS011;12100;44.384;20.272;2022-07-03T13:02:37;11.70;;;7.07;;
23838;SDS011;12100;44.384;20.272;2022-07-03T13:07:49;8.43;;;6.57;;
23838;SDS011;12100;44.384;20.272;2022-07-03T13:10:17;15.20;;;6.50;;
23838;SDS011;12100;44.384;20.272;2022-07-03T13:12:49;7.53;;;5.88;;
23838;SDS011;12100;44.384;20.272;2022-07-03T13:15:16;11.48;;;6.15;;
23838;SDS011;12100;44.384;20.272;2022-07-03T13:20:28;9.68;;;6.63;;
23838;SDS011;12100;44.384;20.272;2022-07-03T13:22:59;9.95;;;6.82;;
23838;SDS011;12100;44.384;20.272;2022-07-03T13:25:30;10.68;;;6.50;;
23838;SDS011;12100;44.384;20.272;2022-07-03T13:28:07;7.72;;;6.50;;
23838;SDS011;12100;44.384;20.272;2022-07-03T13:30:34;9.82;;;5.95;;
23838;SDS011;12100;44.384;20.272;2022-07-03T13:33:01;7.57;;;5.82;;
23838;SDS011;12100;44.384;20.272;2022-07-03T13:35:28;8.23;;;6.43;;
23838;SDS011;12100;44.384;20.272;2022-07-03T13:37:54;6.60;;;5.38;;
23838;SDS011;12100;44.384;20.272;2022-07-03T13:40:20;6.30;;;5.35;;
23838;SDS011;12100;44.384;20.272;2022-07-03T13:42:46;7.40;;;5.82;;
23838;SDS011;12100;44.384;20.272;2022-07-03T13:45:12;7.68;;;6.30;;
23838;SDS011;12100;44.384;20.272;2022-07-03T13:47:39;8.73;;;6.13;;
23838;SDS011;12100;44.384;20.272;2022-07-03T13:50:05;8.55;;;6.43;;
23838;SDS011;12100;44.384;20.272;2022-07-03T13:52:31;9.00;;;6.30;;
23838;SDS011;12100;44.384;20.272;2022-07-03T13:54:57;7.95;;;5.53;;
23838;SDS011;12100;44.384;20.272;2022-07-03T13:57:22;9.05;;;5.78;;
23838;SDS011;12100;44.384;20.272;2022-07-03T13:59:48;8.90;;;6.07;;
23838;SDS011;12100;44.384;20.272;2022-07-03T14:02:17;9.80;;;5.90;;
23838;SDS011;12100;44.384;20.272;2022-07-03T14:04:43;9.88;;;5.65;;
23838;SDS011;12100;44.384;20.272;2022-07-03T14:07:08;12.68;;;6.55;;
23838;SDS011;12100;44.384;20.272;2022-07-03T14:09:35;12.48;;;6.13;;
23838;SDS011;12100;44.384;20.272;2022-07-03T14:12:00;8.05;;;6.20;;
23838;SDS011;12100;44.384;20.272;2022-07-03T14:14:26;6.93;;;5.88;;
23838;SDS011;12100;44.384;20.272;2022-07-03T14:16:52;9.70;;;5.97;;
23838;SDS011;12100;44.384;20.272;2022-07-03T14:19:18;8.45;;;5.80;;
23838;SDS011;12100;44.384;20.272;2022-07-03T14:21:44;8.15;;;5.38;;
23838;SDS011;12100;44.384;20.272;2022-07-03T14:24:10;8.90;;;5.60;;
23838;SDS011;12100;44.384;20.272;2022-07-03T14:26:36;11.60;;;5.90;;
23838;SDS011;12100;44.384;20.272;2022-07-03T14:29:20;8.40;;;6.03;;
23838;SDS011;12100;44.384;20.272;2022-07-03T14:32:04;7.20;;;6.50;;
23838;SDS011;12100;44.384;20.272;2022-07-03T14:34:49;7.72;;;6.10;;
23838;SDS011;12100;44.384;20.272;2022-07-03T14:37:15;7.63;;;6.18;;
23838;SDS011;12100;44.384;20.272;2022-07-03T14:39:46;8.35;;;5.95;;
23838;SDS011;12100;44.384;20.272;2022-07-03T14:42:13;8.27;;;5.38;;
23838;SDS011;12100;44.384;20.272;2022-07-03T14:44:39;5.90;;;5.32;;
23838;SDS011;12100;44.384;20.272;2022-07-03T14:47:05;9.65;;;5.25;;
23838;SDS011;12100;44.384;20.272;2022-07-03T14:49:31;7.20;;;5.60;;
23838;SDS011;12100;44.384;20.272;2022-07-03T14:52:00;7.57;;;5.40;;
23838;SDS011;12100;44.384;20.272;2022-07-03T14:54:26;10.93;;;6.07;;
23838;SDS011;12100;44.384;20.272;2022-07-03T14:56:53;8.05;;;5.65;;
23838;SDS011;12100;44.384;20.272;2022-07-03T14:59:26;7.95;;;6.07;;
23838;SDS011;12100;44.384;20.272;2022-07-03T15:02:05;6.82;;;5.65;;
23838;SDS011;12100;44.384;20.272;2022-07-03T15:04:40;7.30;;;6.00;;
23838;SDS011;12100;44.384;20.272;2022-07-03T15:07:06;8.98;;;5.72;;
23838;SDS011;12100;44.384;20.272;2022-07-03T15:09:32;6.90;;;6.07;;
23838;SDS011;12100;44.384;20.272;2022-07-03T15:12:02;8.13;;;5.88;;
23838;SDS011;12100;44.384;20.272;2022-07-03T15:14:49;7.35;;;6.65;;
23838;SDS011;12100;44.384;20.272;2022-07-03T15:17:18;7.43;;;6.18;;
23838;SDS011;12100;44.384;20.272;2022-07-03T15:19:46;7.60;;;6.35;;
23838;SDS011;12100;44.384;20.272;2022-07-03T15:22:14;7.35;;;5.93;;
23838;SDS011;12100;44.384;20.272;2022-07-03T15:24:40;6.65;;;6.05;;
23838;SDS011;12100;44.384;20.272;2022-07-03T15:27:06;7.70;;;6.15;;
23838;SDS011;12100;44.384;20.272;2022-07-03T15:29:35;8.25;;;6.15;;
23838;SDS011;12100;44.384;20.272;2022-07-03T15:32:03;7.13;;;6.43;;
23838;SDS011;12100;44.384;20.272;2022-07-03T15:34:29;8.63;;;6.60;;
23838;SDS011;12100;44.384;20.272;2022-07-03T15:42:10;8.75;;;6.10;;
23838;SDS011;12100;44.384;20.272;2022-07-03T15:45:01;6.95;;;6.25;;
23838;SDS011;12100;44.384;20.272;2022-07-03T15:47:48;6.85;;;6.22;;
23838;SDS011;12100;44.384;20.272;2022-07-03T15:55:44;9.07;;;6.70;;
23838;SDS011;12100;44.384;20.272;2022-07-03T15:58:13;7.88;;;7.07;;
23838;SDS011;12100;44.384;20.272;2022-07-03T16:00:40;7.72;;;6.88;;
23838;SDS011;12100;44.384;20.272;2022-07-03T16:03:10;7.95;;;7.20;;
23838;SDS011;12100;44.384;20.272;2022-07-03T16:05:49;9.23;;;7.18;;
23838;SDS011;12100;44.384;20.272;2022-07-03T16:08:16;8.18;;;7.10;;
23838;SDS011;12100;44.384;20.272;2022-07-03T16:10:43;7.70;;;7.00;;
23838;SDS011;12100;44.384;20.272;2022-07-03T16:13:09;11.40;;;7.20;;
23838;SDS011;12100;44.384;20.272;2022-07-03T16:15:36;9.63;;;7.10;;
23838;SDS011;12100;44.384;20.272;2022-07-03T16:18:03;9.10;;;7.55;;
23838;SDS011;12100;44.384;20.272;2022-07-03T16:20:30;8.20;;;6.65;;
23838;SDS011;12100;44.384;20.272;2022-07-03T16:23:15;9.80;;;7.85;;